Oxford, KS

2:26 AM CDT on August 28, 2014 (GMT -0500)
Strother | Change Station
CLOSE
Current Station
Airport
Location: Winfield,
Elevation: 1158 ft
Nearby Weather Stations

Elev 1158 ft 37.17 °N, 97.04 °W | Updated 32 minutes ago

Clear
Clear
78 °F
Feels Like 78 °F
N
8
Wind Variable Wind from SSE

Today
High -- | Low -- °F
--% Chance of Precip.
Yesterday
High -- | Low -- °F
Precip. -- in
6:55 AM 8:03 PM
Waxing Crescent, 7% visible
Pressure 29.95 in
Visibility 10.0 miles
Clouds Clear
Dew Point 66 °F
Humidity 66%
Rainfall 0.00 in
Snow Depth Not available.
UV 0 out of 12
Pollen 11.10 out of 12
Air Quality Not available.
Flu Activity Not available.
METAR KWLD 280654Z AUTO 15007KT 10SM CLR 26/19 A2999 RMK AO2 SLP141 T02560189

More Conditions Fewer Conditions

Pressure 29.95 in
Visibility 10.0 miles
Clouds Clear
Dew Point 66 °F
Humidity 66%
Rainfall 0.00 in
Snow Depth Not available.
UV 0 out of 12
Pollen 11.10 out of 12
Air Quality Not available.
Flu Activity Not available.
METAR KWLD 280654Z AUTO 15007KT 10SM CLR 26/19 A2999 RMK AO2 SLP141 T02560189

More Conditions Fewer Conditions

10-Day Weather Forecast

Almanac

Astronomy

Aug. 28, 2014 Rise Set
Actual Time 6:55 AM CDT 8:03 PM CDT
Civil Twilight 6:29 AM CDT 8:29 PM CDT
Nautical Twilight 5:57 AM CDT 9:01 PM CDT
Astronomical Twilight 5:23 AM CDT 9:35 PM CDT
Moon 9:44 AM CDT 9:33 PM CDT
Length of Visible Light 14h 00m
Length of Day
13h 07m
Tomorrow will be 2m 16s shorter.
Waxing Crescent, 7% of the Moon is Illuminated
Today
Waxing Crescent
Sep 2
First Quarter
Sep 8
Full
Sep 15
Last Quarter
Sep 24
New

Today's Extremes

State Highs State Lows

Community

WunderPhotos

Upload Photos

1,747,912 photos uploaded!

Nearby

Snow Depth

Station Depth Elevation
No new snow has been reported.

Earthquake Activity

City Distance Mag. Time & Date
Stillwater, Oklahoma 81 miles 3.1 10:44 AM CDT
2014-08-27
Anthony, Kansas 40 miles 2.8 10:11 AM CDT
2014-08-27
Guthrie, Oklahoma 101 miles 3.2 11:05 AM CDT
2014-08-26
Perry, Oklahoma 76 miles 2.5 8:07 AM CDT
2014-08-26
Minimum magnitude displayed is 2.5.

Coastal Water Temperatures

Place Temperature
No Stations Reporting

Nearby Weather Stations